Time,TemperatureF,DewpointF,PressureIn,WindDirection,WindDirectionDegrees,WindSpeedMPH,WindSpeedGustMPH,Humidity,HourlyPrecipIn,Conditions,Clouds,dailyrainin,SoftwareType,DateUTC
2013-04-06 00:03:00,61.0,56.0,29.98,NNW,341,0.0,3.0,83,0.00,,,0.84,,2013-04-06 04:03:00,
2013-04-06 00:14:00,61.0,56.0,29.98,NNW,341,0.0,3.0,83,0.00,,,0.84,,2013-04-06 04:14:00,
2013-04-06 00:23:00,60.0,55.0,29.98,NW,326,0.0,0.0,83,0.00,,,0.70,,2013-04-06 04:23:00,
2013-04-06 00:33:00,60.0,55.0,29.98,NNW,328,0.0,0.0,84,0.00,,,0.70,,2013-04-06 04:33:00,
2013-04-06 00:42:00,60.0,55.0,29.98,NNW,328,0.0,0.0,84,0.00,,,0.70,,2013-04-06 04:42:00,
2013-04-06 00:53:00,60.0,55.0,29.99,NNW,328,0.0,0.0,84,0.00,,,0.70,,2013-04-06 04:53:00,
2013-04-06 01:02:00,60.0,55.0,29.99,NNW,330,0.0,5.0,84,0.00,,,0.70,,2013-04-06 05:02:00,
2013-04-06 01:13:00,60.0,55.0,29.99,NNW,330,0.0,5.0,84,0.00,,,0.70,,2013-04-06 05:13:00,
2013-04-06 01:22:00,61.0,56.0,29.99,North,360,0.0,3.0,84,0.00,,,0.70,,2013-04-06 05:22:00,
2013-04-06 01:33:00,61.0,56.0,29.99,NNW,335,2.0,5.0,83,0.00,,,0.55,,2013-04-06 05:33:00,
2013-04-06 01:42:00,61.0,56.0,29.99,NNW,335,2.0,5.0,83,0.00,,,0.55,,2013-04-06 05:42:00,
2013-04-06 01:52:00,61.0,56.0,29.99,NNW,341,1.0,6.0,84,0.00,,,0.55,,2013-04-06 05:52:00,
2013-04-06 02:03:00,61.0,56.0,29.99,North,359,1.0,5.0,84,0.00,,,0.55,,2013-04-06 06:03:00,
2013-04-06 02:12:00,61.0,56.0,29.99,North,359,1.0,5.0,84,0.00,,,0.55,,2013-04-06 06:12:00,
2013-04-06 02:22:00,62.0,57.0,30.00,North,356,1.0,4.0,84,0.00,,,0.41,,2013-04-06 06:22:00,
2013-04-06 02:32:00,62.0,57.0,29.99,North,7,3.0,9.0,84,0.00,,,0.41,,2013-04-06 06:32:00,
2013-04-06 02:42:00,62.0,57.0,29.99,North,7,3.0,9.0,84,0.00,,,0.41,,2013-04-06 06:42:00,
2013-04-06 02:53:00,62.0,57.0,29.99,North,6,1.0,5.0,84,0.00,,,0.41,,2013-04-06 06:53:00,
2013-04-06 03:03:00,62.0,57.0,29.99,NNE,13,2.0,8.0,84,0.00,,,0.41,,2013-04-06 07:03:00,
2013-04-06 03:12:00,62.0,57.0,29.99,NNE,13,2.0,8.0,84,0.00,,,0.41,,2013-04-06 07:12:00,
2013-04-06 03:22:00,62.0,57.0,30.00,NNE,13,2.0,10.0,84,0.00,,,0.33,,2013-04-06 07:22:00,
2013-04-06 03:33:00,62.0,57.0,29.99,NNE,13,2.0,7.0,84,0.00,,,0.33,,2013-04-06 07:33:00,
2013-04-06 03:43:00,62.0,57.0,29.99,NNE,13,2.0,7.0,84,0.00,,,0.33,,2013-04-06 07:43:00,
2013-04-06 03:53:00,62.0,57.0,29.99,NNE,13,0.0,8.0,84,0.00,,,0.33,,2013-04-06 07:53:00,
2013-04-06 04:02:00,62.0,57.0,29.99,NNE,13,3.0,7.0,85,0.00,,,0.33,,2013-04-06 08:02:00,
2013-04-06 04:13:00,62.0,57.0,29.99,NNE,13,3.0,7.0,85,0.00,,,0.33,,2013-04-06 08:13:00,
2013-04-06 04:22:00,61.0,56.0,29.99,NNE,13,3.0,8.0,85,0.00,,,0.30,,2013-04-06 08:22:00,
2013-04-06 04:32:00,61.0,56.0,30.00,North,11,0.0,4.0,85,0.00,,,0.30,,2013-04-06 08:32:00,
2013-04-06 04:42:00,61.0,56.0,30.00,North,11,0.0,4.0,85,0.00,,,0.30,,2013-04-06 08:42:00,
2013-04-06 04:52:00,61.0,56.0,29.99,NNE,13,0.0,4.0,85,0.00,,,0.30,,2013-04-06 08:52:00,
2013-04-06 05:02:00,60.0,55.0,29.99,NNE,13,2.0,9.0,85,0.00,,,0.30,,2013-04-06 09:02:00,
2013-04-06 05:12:00,60.0,55.0,29.99,NNE,13,2.0,9.0,85,0.00,,,0.30,,2013-04-06 09:12:00,
2013-04-06 05:22:00,60.0,55.0,29.99,North,8,2.0,10.0,85,0.00,,,0.30,,2013-04-06 09:22:00,
2013-04-06 05:33:00,60.0,55.0,30.00,North,360,1.0,7.0,84,0.00,,,0.30,,2013-04-06 09:33:00,
2013-04-06 05:43:00,60.0,55.0,30.00,North,360,1.0,7.0,84,0.00,,,0.30,,2013-04-06 09:43:00,
2013-04-06 05:53:00,59.0,54.0,30.01,North,10,0.0,6.0,85,0.00,,,0.30,,2013-04-06 09:53:00,
2013-04-06 06:03:00,59.0,54.0,30.01,NNE,13,1.0,7.0,85,0.00,,,0.30,,2013-04-06 10:03:00,
2013-04-06 06:13:00,59.0,54.0,30.01,NNE,13,1.0,7.0,85,0.00,,,0.30,,2013-04-06 10:13:00,
2013-04-06 06:23:00,59.0,54.0,30.02,NNE,13,0.0,5.0,85,0.00,,,0.30,,2013-04-06 10:23:00,
2013-04-06 06:33:00,59.0,54.0,30.03,NNE,13,0.0,6.0,85,0.00,,,0.30,,2013-04-06 10:33:00,
2013-04-06 06:42:00,59.0,54.0,30.03,NNE,13,0.0,6.0,85,0.00,,,0.30,,2013-04-06 10:42:00,
2013-04-06 06:53:00,59.0,54.0,30.04,North,1,1.0,4.0,85,0.00,,,0.30,,2013-04-06 10:53:00,
2013-04-06 07:02:00,59.0,54.0,30.04,NNE,13,0.0,0.0,85,0.00,,,0.30,,2013-04-06 11:02:00,
2013-04-06 07:12:00,59.0,54.0,30.04,NNE,13,0.0,0.0,85,0.00,,,0.30,,2013-04-06 11:12:00,
2013-04-06 07:23:00,59.0,54.0,30.04,North,6,1.0,4.0,85,0.00,,,0.30,,2013-04-06 11:23:00,
2013-04-06 07:33:00,59.0,54.0,30.05,NNE,12,1.0,4.0,85,0.00,,,0.30,,2013-04-06 11:33:00,
2013-04-06 07:43:00,59.0,54.0,30.05,NNE,12,1.0,4.0,85,0.00,,,0.30,,2013-04-06 11:43:00,
2013-04-06 07:53:00,58.0,54.0,30.04,NNE,13,0.0,7.0,85,0.00,,,0.30,,2013-04-06 11:53:00,
2013-04-06 08:02:00,58.0,54.0,30.06,NNE,13,0.0,0.0,85,0.00,,,0.30,,2013-04-06 12:02:00,
2013-04-06 08:13:00,58.0,54.0,30.06,NNE,13,0.0,0.0,85,0.00,,,0.30,,2013-04-06 12:13:00,
2013-04-06 08:22:00,58.0,54.0,30.07,North,359,3.0,7.0,85,0.00,,,0.25,,2013-04-06 12:22:00,
2013-04-06 08:33:00,59.0,54.0,30.07,North,8,1.0,7.0,85,0.00,,,0.25,,2013-04-06 12:33:00,
2013-04-06 08:43:00,59.0,54.0,30.07,North,8,1.0,7.0,85,0.00,,,0.25,,2013-04-06 12:43:00,
2013-04-06 08:53:00,60.0,55.0,30.07,North,360,0.0,7.0,85,0.00,,,0.25,,2013-04-06 12:53:00,
2013-04-06 09:03:00,61.0,56.0,30.08,NNE,13,3.0,9.0,83,0.00,,,0.25,,2013-04-06 13:03:00,
2013-04-06 09:13:00,61.0,56.0,30.08,NNE,13,3.0,9.0,83,0.00,,,0.25,,2013-04-06 13:13:00,
2013-04-06 09:24:00,62.0,56.0,30.08,NNE,13,4.0,10.0,80,0.00,,,0.01,,2013-04-06 13:24:00,
2013-04-06 09:32:00,62.0,55.0,30.08,NNE,13,0.0,8.0,78,0.00,,,0.01,,2013-04-06 13:32:00,
2013-04-06 09:43:00,62.0,55.0,30.08,NNE,13,0.0,8.0,78,0.00,,,0.01,,2013-04-06 13:43:00,
2013-04-06 09:54:00,64.0,56.0,30.08,North,10,4.0,10.0,75,0.00,,,0.01,,2013-04-06 13:54:00,
2013-04-06 10:04:00,64.0,56.0,30.08,NNW,333,2.0,12.0,74,0.00,,,0.01,,2013-04-06 14:04:00,
2013-04-06 10:12:00,65.0,56.0,30.08,NNE,15,3.0,12.0,72,0.00,,,0.01,,2013-04-06 14:12:00,
2013-04-06 10:22:00,65.0,56.0,30.08,NNE,15,3.0,12.0,72,0.00,,,0.01,,2013-04-06 14:22:00,
2013-04-06 10:33:00,65.0,55.0,30.08,NNE,15,5.0,10.0,71,0.00,,,0.01,,2013-04-06 14:33:00,
2013-04-06 10:43:00,65.0,55.0,30.08,NNE,15,5.0,10.0,71,0.00,,,0.01,,2013-04-06 14:43:00,
2013-04-06 10:53:00,66.0,56.0,30.08,NNE,13,3.0,10.0,69,0.00,,,0.01,,2013-04-06 14:53:00,
2013-04-06 11:02:00,66.0,56.0,30.07,NNE,14,5.0,12.0,69,0.00,,,0.01,,2013-04-06 15:02:00,
2013-04-06 11:12:00,66.0,56.0,30.07,NNE,14,5.0,12.0,69,0.00,,,0.01,,2013-04-06 15:12:00,
2013-04-06 11:23:00,67.0,56.0,30.07,North,1,3.0,10.0,69,0.00,,,0.01,,2013-04-06 15:23:00,
2013-04-06 11:33:00,68.0,57.0,30.07,NNE,17,7.0,14.0,67,0.00,,,0.01,,2013-04-06 15:33:00,
2013-04-06 11:43:00,68.0,57.0,30.07,NNE,17,7.0,14.0,67,0.00,,,0.01,,2013-04-06 15:43:00,
2013-04-06 11:53:00,69.0,58.0,30.08,North,360,3.0,11.0,67,0.00,,,0.01,,2013-04-06 15:53:00,
2013-04-06 12:05:00,70.0,57.0,30.07,NNE,15,5.0,9.0,64,0.00,,,0.01,,2013-04-06 16:05:00,
2013-04-06 12:17:00,70.0,57.0,30.07,NNE,15,5.0,9.0,64,0.00,,,0.01,,2013-04-06 16:17:00,
2013-04-06 12:23:00,70.0,57.0,30.08,NNE,15,7.0,12.0,63,0.00,,,0.00,,2013-04-06 16:23:00,
2013-04-06 12:33:00,71.0,57.0,30.08,NNE,15,3.0,11.0,61,0.00,,,0.00,,2013-04-06 16:33:00,
2013-04-06 12:42:00,71.0,57.0,30.08,NNE,15,3.0,11.0,61,0.00,,,0.00,,2013-04-06 16:42:00,
2013-04-06 12:53:00,73.0,58.0,30.08,North,11,0.0,6.0,60,0.00,,,0.00,,2013-04-06 16:53:00,
2013-04-06 13:03:00,72.0,58.0,30.08,NNE,14,0.0,8.0,62,0.00,,,0.00,,2013-04-06 17:03:00,
2013-04-06 13:12:00,72.0,58.0,30.08,NNE,14,0.0,8.0,62,0.00,,,0.00,,2013-04-06 17:12:00,
2013-04-06 13:22:00,73.0,58.0,30.08,NNE,15,1.0,7.0,60,0.00,,,0.00,,2013-04-06 17:22:00,
2013-04-06 13:32:00,74.0,59.0,30.07,NNE,15,1.0,9.0,59,0.00,,,0.00,,2013-04-06 17:32:00,
2013-04-06 13:42:00,74.0,59.0,30.07,NNE,15,1.0,9.0,59,0.00,,,0.00,,2013-04-06 17:42:00,
2013-04-06 13:52:00,76.0,59.0,30.06,East,85,0.0,5.0,56,0.00,,,0.00,,2013-04-06 17:52:00,
2013-04-06 14:03:00,75.0,60.0,30.06,ENE,70,1.0,10.0,59,0.00,,,0.00,,2013-04-06 18:03:00,
2013-04-06 14:12:00,75.0,60.0,30.06,ENE,70,1.0,10.0,59,0.00,,,0.00,,2013-04-06 18:12:00,
2013-04-06 14:23:00,75.0,58.0,30.07,East,98,0.0,7.0,56,0.00,,,0.00,,2013-04-06 18:23:00,
2013-04-06 14:32:00,76.0,59.0,30.06,ESE,114,0.0,7.0,56,0.00,,,0.00,,2013-04-06 18:32:00,
2013-04-06 14:42:00,76.0,59.0,30.06,ESE,114,0.0,7.0,56,0.00,,,0.00,,2013-04-06 18:42:00,
2013-04-06 14:52:00,76.0,59.0,30.05,ENE,57,1.0,7.0,56,0.00,,,0.00,,2013-04-06 18:52:00,
2013-04-06 15:03:00,78.0,58.0,30.04,NE,42,2.0,12.0,50,0.00,,,0.00,,2013-04-06 19:03:00,
2013-04-06 15:12:00,78.0,58.0,30.04,NE,42,2.0,12.0,50,0.00,,,0.00,,2013-04-06 19:12:00,
2013-04-06 15:23:00,78.0,58.0,30.04,East,84,1.0,7.0,51,0.00,,,0.00,,2013-04-06 19:23:00,
2013-04-06 15:33:00,77.0,59.0,30.04,East,88,0.0,7.0,54,0.00,,,0.00,,2013-04-06 19:33:00,
2013-04-06 15:42:00,77.0,59.0,30.04,East,88,0.0,7.0,54,0.00,,,0.00,,2013-04-06 19:42:00,
2013-04-06 15:54:00,77.0,59.0,30.03,ESE,106,2.0,5.0,54,0.00,,,0.00,,2013-04-06 19:54:00,
2013-04-06 16:03:00,78.0,58.0,30.03,ESE,103,1.0,10.0,51,0.00,,,0.00,,2013-04-06 20:03:00,
2013-04-06 16:12:00,78.0,58.0,30.03,ESE,103,1.0,10.0,51,0.00,,,0.00,,2013-04-06 20:12:00,
2013-04-06 16:22:00,79.0,59.0,30.03,SE,144,1.0,6.0,50,0.00,,,0.00,,2013-04-06 20:22:00,
2013-04-06 16:32:00,80.0,60.0,30.02,SSE,150,2.0,10.0,50,0.00,,,0.00,,2013-04-06 20:32:00,
2013-04-06 16:42:00,80.0,60.0,30.02,SSE,150,2.0,10.0,50,0.00,,,0.00,,2013-04-06 20:42:00,
2013-04-06 16:53:00,79.0,58.0,30.02,ESE,111,1.0,6.0,48,0.00,,,0.00,,2013-04-06 20:53:00,
2013-04-06 17:02:00,79.0,59.0,30.02,East,92,2.0,11.0,51,0.00,,,0.00,,2013-04-06 21:02:00,
2013-04-06 17:13:00,78.0,62.0,30.02,NW,310,1.0,7.0,59,0.00,,,0.00,,2013-04-06 21:13:00,
2013-04-06 17:22:00,78.0,62.0,30.02,NW,310,1.0,7.0,59,0.00,,,0.00,,2013-04-06 21:22:00,
2013-04-06 17:33:00,74.0,61.0,30.02,West,269,4.0,11.0,65,0.00,,,0.00,,2013-04-06 21:33:00,
2013-04-06 17:43:00,74.0,61.0,30.02,West,269,4.0,11.0,65,0.00,,,0.00,,2013-04-06 21:43:00,
2013-04-06 17:53:00,75.0,62.0,30.03,WNW,290,3.0,10.0,65,0.00,,,0.00,,2013-04-06 21:53:00,
2013-04-06 18:03:00,73.0,62.0,30.03,WNW,300,0.0,8.0,68,0.00,,,0.00,,2013-04-06 22:03:00,
2013-04-06 18:13:00,73.0,62.0,30.03,WNW,300,0.0,8.0,68,0.00,,,0.00,,2013-04-06 22:13:00,
2013-04-06 18:23:00,74.0,62.0,30.03,NW,308,3.0,10.0,67,0.00,,,0.00,,2013-04-06 22:23:00,
2013-04-06 18:34:00,73.0,61.0,30.03,NW,311,3.0,10.0,67,0.00,,,0.00,,2013-04-06 22:34:00,
2013-04-06 18:43:00,73.0,61.0,30.03,NW,311,3.0,10.0,67,0.00,,,0.00,,2013-04-06 22:43:00,
2013-04-06 18:54:00,72.0,62.0,30.04,NW,304,0.0,7.0,70,0.00,,,0.00,,2013-04-06 22:54:00,
2013-04-06 19:03:00,71.0,62.0,30.04,NW,305,0.0,5.0,72,0.00,,,0.00,,2013-04-06 23:03:00,
2013-04-06 19:14:00,71.0,62.0,30.04,NW,305,0.0,5.0,72,0.00,,,0.00,,2013-04-06 23:14:00,
2013-04-06 19:23:00,71.0,62.0,30.04,NW,304,0.0,7.0,74,0.00,,,0.00,,2013-04-06 23:23:00,
2013-04-06 19:34:00,71.0,62.0,30.05,NW,310,0.0,5.0,73,0.00,,,0.00,,2013-04-06 23:34:00,
2013-04-06 19:42:00,71.0,62.0,30.05,NW,310,0.0,5.0,73,0.00,,,0.00,,2013-04-06 23:42:00,
2013-04-06 19:53:00,70.0,61.0,30.05,NW,309,0.0,1.0,74,0.00,,,0.00,,2013-04-06 23:53:00,
2013-04-06 20:02:00,70.0,62.0,30.06,NW,308,0.0,4.0,75,0.00,,,0.00,,2013-04-07 00:02:00,
2013-04-06 20:13:00,70.0,62.0,30.06,NW,308,0.0,4.0,75,0.00,,,0.00,,2013-04-07 00:13:00,
2013-04-06 20:22:00,69.0,61.0,30.07,NW,308,0.0,0.0,77,0.00,,,0.00,,2013-04-07 00:22:00,
2013-04-06 20:33:00,69.0,61.0,30.07,NW,307,0.0,3.0,76,0.00,,,0.00,,2013-04-07 00:33:00,
2013-04-06 20:43:00,69.0,61.0,30.07,NW,307,0.0,3.0,76,0.00,,,0.00,,2013-04-07 00:43:00,
2013-04-06 20:53:00,69.0,61.0,30.07,NW,307,0.0,0.0,76,0.00,,,0.00,,2013-04-07 00:53:00,
2013-04-06 21:02:00,69.0,61.0,30.07,NW,307,0.0,0.0,77,0.00,,,0.00,,2013-04-07 01:02:00,
2013-04-06 21:12:00,69.0,61.0,30.07,NW,307,0.0,0.0,77,0.00,,,0.00,,2013-04-07 01:12:00,
2013-04-06 21:23:00,68.0,61.0,30.07,NW,307,0.0,0.0,78,0.00,,,0.00,,2013-04-07 01:23:00,
2013-04-06 21:32:00,68.0,61.0,30.08,NW,307,0.0,0.0,79,0.00,,,0.00,,2013-04-07 01:32:00,
2013-04-06 21:43:00,68.0,61.0,30.08,NW,307,0.0,0.0,79,0.00,,,0.00,,2013-04-07 01:43:00,
2013-04-06 21:53:00,66.0,60.0,30.09,NW,307,0.0,0.0,81,0.00,,,0.00,,2013-04-07 01:53:00,
2013-04-06 22:03:00,66.0,60.0,30.09,NW,307,0.0,0.0,82,0.00,,,0.00,,2013-04-07 02:03:00,
2013-04-06 22:12:00,66.0,60.0,30.09,NW,307,0.0,0.0,82,0.00,,,0.00,,2013-04-07 02:12:00,
2013-04-06 22:23:00,65.0,59.0,30.10,NW,307,0.0,0.0,82,0.00,,,0.00,,2013-04-07 02:23:00,
2013-04-06 22:33:00,66.0,60.0,30.10,NW,307,0.0,0.0,82,0.00,,,0.00,,2013-04-07 02:33:00,
2013-04-06 22:43:00,66.0,60.0,30.10,NW,307,0.0,0.0,82,0.00,,,0.00,,2013-04-07 02:43:00,
2013-04-06 22:52:00,66.0,59.0,30.10,NNE,14,0.0,0.0,79,0.00,,,0.00,,2013-04-07 02:52:00,
2013-04-06 23:02:00,66.0,59.0,30.10,NNE,14,0.0,0.0,77,0.00,,,0.00,,2013-04-07 03:02:00,
2013-04-06 23:12:00,66.0,59.0,30.10,NNE,14,0.0,0.0,77,0.00,,,0.00,,2013-04-07 03:12:00,
2013-04-06 23:22:00,66.0,59.0,30.10,NNE,14,0.0,0.0,77,0.00,,,0.00,,2013-04-07 03:22:00,
2013-04-06 23:35:00,65.0,58.0,30.10,NNE,14,0.0,0.0,77,0.00,,,0.00,,2013-04-07 03:35:00,
2013-04-06 23:55:00,65.0,58.0,30.10,NNE,14,0.0,0.0,78,0.00,,,0.00,,2013-04-07 03:55:00,